Time;durP1;ratioP1;P1;durP2;ratioP2;P2;SDS_P1;SDS_P2;PMS_P1;PMS_P2;Temp;Humidity;BMP_temperature;BMP_pressure;BME280_temperature;BME280_humidity;BME280_pressure;Samples;Min_cycle;Max_cycle;Signal;HPM_P1;HPM_P2
2023/07/17 00:02:08;;;;;;;9.20;4.40;;;21.00;69.10;;;;;;5104149;28;20519;-78
2023/07/17 00:04:44;;;;;;;9.47;4.10;;;21.00;69.10;;;;;;5105609;28;20784;-78
2023/07/17 00:07:21;;;;;;;10.10;4.17;;;21.00;69.10;;;;;;5089599;28;20472;-78
2023/07/17 00:09:55;;;;;;;8.23;4.07;;;20.90;69.10;;;;;;5103367;28;20455;-77
2023/07/17 00:12:40;;;;;;;9.23;4.03;;;20.90;69.20;;;;;;5101708;28;20467;-78
2023/07/17 00:15:11;;;;;;;6.77;3.83;;;20.90;69.30;;;;;;5101154;28;20467;-78
2023/07/17 00:17:45;;;;;;;9.93;4.07;;;20.90;69.30;;;;;;5101309;28;20475;-78
2023/07/17 00:20:17;;;;;;;15.30;4.30;;;20.90;69.20;;;;;;5104639;28;21076;-78
2023/07/17 00:22:52;;;;;;;10.60;4.33;;;20.90;69.20;;;;;;5106934;28;20521;-78
2023/07/17 00:25:28;;;;;;;8.57;4.07;;;20.80;69.30;;;;;;5103569;28;20573;-78
2023/07/17 00:28:09;;;;;;;9.57;4.70;;;20.70;69.30;;;;;;5102746;28;20575;-78
2023/07/17 00:30:40;;;;;;;10.63;4.33;;;20.60;69.30;;;;;;5100594;28;20468;-77
2023/07/17 00:33:18;;;;;;;10.93;4.10;;;20.60;69.50;;;;;;5101766;28;20524;-77
2023/07/17 00:35:52;;;;;;;10.20;4.80;;;20.50;69.50;;;;;;5105275;28;20467;-77
2023/07/17 00:38:32;;;;;;;11.10;3.77;;;20.50;69.60;;;;;;5102296;28;20464;-77
2023/07/17 00:41:16;;;;;;;11.07;4.23;;;20.50;69.70;;;;;;5103948;28;20495;-77
2023/07/17 00:43:58;;;;;;;11.30;4.07;;;20.50;69.70;;;;;;5107768;28;20487;-78
2023/07/17 00:46:35;;;;;;;10.43;3.77;;;20.50;69.60;;;;;;5118779;27;20452;-78
2023/07/17 00:49:17;;;;;;;28.37;5.37;;;20.60;69.60;;;;;;5119030;27;21004;-78
2023/07/17 00:52:00;;;;;;;7.83;3.60;;;20.50;69.60;;;;;;5084702;28;20451;-77
2023/07/17 00:54:34;;;;;;;12.00;4.70;;;20.50;69.60;;;;;;5098918;28;20463;-77
2023/07/17 00:57:10;;;;;;;8.60;4.10;;;20.50;69.70;;;;;;5102335;28;21012;-77
2023/07/17 00:59:43;;;;;;;13.20;4.20;;;20.50;69.60;;;;;;5102868;28;20483;-78
2023/07/17 01:02:25;;;;;;;7.13;4.30;;;20.50;69.60;;;;;;5103541;27;20487;-77
2023/07/17 01:05:02;;;;;;;10.30;4.70;;;20.50;69.60;;;;;;5100884;28;20466;-79
2023/07/17 01:07:41;;;;;;;7.27;4.00;;;20.50;69.60;;;;;;5098752;28;20999;-78
2023/07/17 01:10:18;;;;;;;10.57;4.67;;;20.50;69.60;;;;;;5105902;28;21259;-77
2023/07/17 01:12:57;;;;;;;8.27;4.67;;;20.50;69.60;;;;;;5096492;28;20550;-77
2023/07/17 01:15:43;;;;;;;8.77;4.87;;;20.50;69.60;;;;;;5103905;28;20451;-77
2023/07/17 01:18:27;;;;;;;7.60;3.70;;;20.50;69.60;;;;;;5098863;28;20491;-78
2023/07/17 01:20:59;;;;;;;13.87;4.67;;;20.50;69.50;;;;;;5101633;28;20461;-77
2023/07/17 01:23:37;;;;;;;12.17;4.87;;;20.50;69.30;;;;;;5104248;28;20459;-77
2023/07/17 01:26:18;;;;;;;8.10;3.63;;;20.40;69.40;;;;;;5104025;28;20503;-77
2023/07/17 01:28:51;;;;;;;9.00;3.80;;;20.30;69.40;;;;;;5101697;28;20571;-77
2023/07/17 01:31:25;;;;;;;9.00;3.93;;;20.20;69.40;;;;;;5101375;28;20471;-78
2023/07/17 01:34:01;;;;;;;10.30;4.13;;;20.20;69.60;;;;;;5098408;28;20517;-77
2023/07/17 01:36:39;;;;;;;7.30;4.17;;;20.10;69.70;;;;;;5101461;28;21045;-77
2023/07/17 01:39:25;;;;;;;13.50;3.60;;;20.10;69.70;;;;;;5103245;28;20452;-77
2023/07/17 01:41:59;;;;;;;9.53;4.47;;;20.10;69.70;;;;;;5100866;28;20467;-77
2023/07/17 01:44:32;;;;;;;7.70;3.70;;;20.10;69.70;;;;;;5101313;28;20588;-78
2023/07/17 01:47:10;;;;;;;6.87;3.60;;;20.00;69.70;;;;;;5102810;28;20467;-78
2023/07/17 01:49:42;;;;;;;12.10;4.47;;;20.00;69.70;;;;;;5098676;28;20544;-77
2023/07/17 01:52:10;;;;;;;10.87;4.80;;;20.00;69.80;;;;;;5102268;28;20492;-77
2023/07/17 01:54:48;;;;;;;9.30;4.30;;;20.00;69.80;;;;;;5100759;28;20503;-78
2023/07/17 01:57:19;;;;;;;7.90;4.60;;;20.00;69.90;;;;;;5105039;28;20452;-77
2023/07/17 01:59:55;;;;;;;9.03;4.50;;;19.90;69.90;;;;;;5102254;28;20542;-78
2023/07/17 02:02:28;;;;;;;9.30;4.30;;;19.90;69.90;;;;;;5116667;27;20980;-78
2023/07/17 02:05:03;;;;;;;7.07;4.00;;;19.90;69.90;;;;;;5102367;28;20457;-77
2023/07/17 02:07:37;;;;;;;10.13;4.50;;;19.90;69.90;;;;;;5105177;28;20905;-77
2023/07/17 02:10:17;;;;;;;12.37;4.63;;;19.90;70.00;;;;;;5106592;28;20543;-78
2023/07/17 02:13:20;;;;;;;8.20;4.43;;;19.90;70.00;;;;;;5099133;28;20471;-79
2023/07/17 02:15:58;;;;;;;10.23;3.97;;;19.80;70.10;;;;;;5106753;28;20954;-79
2023/07/17 02:18:36;;;;;;;6.70;4.40;;;19.80;70.20;;;;;;5105622;28;20462;-79
2023/07/17 02:21:08;;;;;;;11.83;4.80;;;19.80;70.20;;;;;;5105798;28;20474;-77
2023/07/17 02:23:40;;;;;;;17.50;5.10;;;19.80;70.10;;;;;;5094904;28;20461;-78
2023/07/17 02:26:17;;;;;;;9.03;4.73;;;19.80;70.10;;;;;;5101132;28;20452;-77
2023/07/17 02:29:07;;;;;;;9.13;4.33;;;19.80;70.20;;;;;;5103520;28;20499;-78
2023/07/17 02:31:48;;;;;;;9.53;4.33;;;19.70;70.20;;;;;;5097567;28;20495;-77
2023/07/17 02:34:21;;;;;;;12.03;4.90;;;19.80;70.20;;;;;;5102440;28;20467;-77
2023/07/17 02:36:53;;;;;;;8.93;4.37;;;19.70;70.20;;;;;;5102877;28;20488;-77
2023/07/17 02:39:30;;;;;;;9.90;3.80;;;19.70;70.20;;;;;;5101847;28;20834;-77
2023/07/17 02:42:06;;;;;;;12.67;3.87;;;19.70;70.30;;;;;;5104850;28;20497;-77
2023/07/17 02:44:46;;;;;;;8.60;4.30;;;19.70;70.20;;;;;;5103630;28;20463;-78
2023/07/17 02:47:17;;;;;;;8.30;3.57;;;19.60;70.20;;;;;;5108938;28;20454;-78
2023/07/17 02:49:56;;;;;;;11.70;4.10;;;19.60;70.20;;;;;;5120165;27;20490;-78
2023/07/17 02:52:25;;;;;;;7.50;3.93;;;19.60;70.20;;;;;;5105368;28;20904;-78
2023/07/17 02:54:53;;;;;;;8.67;4.37;;;19.50;70.20;;;;;;5109255;28;20459;-77
2023/07/17 02:57:23;;;;;;;14.33;4.50;;;19.50;70.30;;;;;;5108891;28;20462;-77
2023/07/17 02:59:51;;;;;;;11.30;4.23;;;19.40;70.30;;;;;;5107655;28;21123;-77
2023/07/17 03:02:19;;;;;;;10.90;4.10;;;19.40;70.40;;;;;;5103231;28;20478;-78
2023/07/17 03:04:47;;;;;;;9.20;4.27;;;19.30;70.50;;;;;;5104824;28;20490;-77
2023/07/17 03:07:15;;;;;;;9.70;4.13;;;19.30;70.60;;;;;;5110283;28;20471;-77
2023/07/17 03:09:43;;;;;;;10.57;4.57;;;19.30;70.50;;;;;;5108023;28;20467;-77
2023/07/17 03:12:11;;;;;;;11.83;4.50;;;19.20;70.50;;;;;;5107580;27;20476;-78
2023/07/17 03:14:40;;;;;;;8.50;4.63;;;19.20;70.60;;;;;;5108253;28;20514;-78
2023/07/17 03:17:09;;;;;;;11.00;4.13;;;19.20;70.70;;;;;;5109280;28;20487;-78
2023/07/17 03:19:38;;;;;;;9.57;4.33;;;19.20;70.80;;;;;;5101881;28;20452;-77
2023/07/17 03:22:06;;;;;;;10.63;5.37;;;19.20;70.80;;;;;;5100600;28;20807;-78
2023/07/17 03:24:34;;;;;;;12.40;5.40;;;19.20;70.80;;;;;;5110752;28;20543;-78
2023/07/17 03:27:03;;;;;;;11.73;4.37;;;19.20;70.90;;;;;;5112629;28;20500;-78
2023/07/17 03:29:31;;;;;;;10.67;5.00;;;19.20;70.80;;;;;;5112298;28;20489;-78
2023/07/17 03:32:00;;;;;;;12.23;4.87;;;19.20;70.80;;;;;;5113195;28;21017;-78
2023/07/17 03:34:29;;;;;;;10.83;4.73;;;19.20;70.90;;;;;;5112326;28;20495;-78
2023/07/17 03:36:57;;;;;;;10.07;4.83;;;19.20;71.00;;;;;;5109497;28;20490;-78
2023/07/17 03:39:25;;;;;;;10.00;4.17;;;19.20;71.00;;;;;;5106506;28;20470;-77
2023/07/17 03:41:53;;;;;;;10.63;4.97;;;19.20;71.00;;;;;;5106250;28;20732;-79
2023/07/17 03:44:21;;;;;;;14.17;4.97;;;19.10;71.00;;;;;;5111715;28;20875;-78
2023/07/17 03:46:50;;;;;;;19.30;5.60;;;19.20;71.00;;;;;;5112733;28;20553;-78
2023/07/17 03:49:21;;;;;;;24.07;5.60;;;19.20;71.00;;;;;;5105538;28;20485;-77
2023/07/17 03:51:49;;;;;;;14.53;4.70;;;19.10;70.90;;;;;;5110257;28;20984;-77
2023/07/17 03:54:17;;;;;;;12.87;4.60;;;19.10;71.00;;;;;;5108765;28;20487;-78
2023/07/17 03:56:48;;;;;;;18.27;4.63;;;19.10;71.00;;;;;;5100592;28;20479;-78
2023/07/17 03:59:16;;;;;;;13.90;4.93;;;19.10;71.00;;;;;;5117897;27;20467;-78
2023/07/17 04:01:44;;;;;;;21.90;4.53;;;19.00;71.00;;;;;;5108060;28;20473;-78
2023/07/17 04:04:12;;;;;;;12.63;4.90;;;19.00;71.10;;;;;;5108108;28;20458;-78
2023/07/17 04:06:42;;;;;;;15.47;4.90;;;19.00;71.10;;;;;;5102694;28;20447;-78
2023/07/17 04:09:10;;;;;;;12.37;5.53;;;19.10;71.00;;;;;;5109683;28;20571;-78
2023/07/17 04:11:40;;;;;;;12.20;4.93;;;19.10;71.00;;;;;;5108604;27;20455;-79
2023/07/17 04:14:11;;;;;;;8.67;4.50;;;19.10;71.00;;;;;;5107853;28;20479;-78
2023/07/17 04:16:39;;;;;;;12.93;4.60;;;19.10;71.10;;;;;;5105429;28;20458;-78
2023/07/17 04:19:07;;;;;;;10.53;4.80;;;19.10;71.10;;;;;;5104689;28;21037;-78
2023/07/17 04:21:36;;;;;;;16.00;4.37;;;19.10;71.10;;;;;;5102050;28;20538;-78
2023/07/17 04:24:06;;;;;;;15.57;5.83;;;19.20;71.20;;;;;;5106119;28;20459;-79
2023/07/17 04:26:43;;;;;;;10.80;5.67;;;19.20;71.30;;;;;;5105712;28;20459;-78
2023/07/17 04:29:11;;;;;;;11.40;4.93;;;19.20;71.40;;;;;;5104899;28;20510;-79
2023/07/17 04:31:43;;;;;;;8.97;4.77;;;19.30;71.50;;;;;;5102309;28;20480;-78
2023/07/17 04:34:11;;;;;;;18.13;5.57;;;19.40;71.50;;;;;;5100328;28;20812;-79
2023/07/17 04:36:39;;;;;;;19.93;4.93;;;19.50;71.50;;;;;;5095234;28;20475;-79
2023/07/17 04:39:08;;;;;;;21.23;5.87;;;19.60;71.40;;;;;;5102627;27;20510;-79
2023/07/17 04:41:36;;;;;;;20.07;5.60;;;19.70;71.40;;;;;;5101844;28;21195;-79
2023/07/17 04:44:05;;;;;;;16.93;5.33;;;19.70;71.30;;;;;;5101977;28;20490;-79
2023/07/17 04:46:34;;;;;;;11.10;4.70;;;19.80;71.30;;;;;;5103508;28;20444;-79
2023/07/17 04:49:03;;;;;;;10.77;4.67;;;19.90;71.20;;;;;;5105503;28;20474;-79
2023/07/17 04:51:31;;;;;;;15.50;5.07;;;20.00;71.20;;;;;;5100129;28;20459;-79
2023/07/17 04:53:59;;;;;;;14.07;4.53;;;20.20;71.20;;;;;;5099550;28;20527;-80
2023/07/17 04:56:29;;;;;;;13.80;4.70;;;20.30;71.00;;;;;;5109276;28;20470;-79
2023/07/17 04:58:59;;;;;;;10.60;5.20;;;20.50;71.00;;;;;;5104190;28;20456;-80
2023/07/17 05:01:28;;;;;;;12.47;5.07;;;20.60;70.90;;;;;;5104045;28;20464;-79
2023/07/17 05:03:57;;;;;;;15.90;4.97;;;20.80;70.80;;;;;;5097257;28;20451;-79
2023/07/17 05:06:25;;;;;;;13.00;5.50;;;20.90;70.70;;;;;;5105767;28;20968;-79
2023/07/17 05:08:53;;;;;;;13.90;4.33;;;21.00;70.60;;;;;;5097622;28;20482;-79
2023/07/17 05:11:21;;;;;;;12.00;4.83;;;21.20;70.50;;;;;;5103677;28;21030;-79
2023/07/17 05:13:50;;;;;;;13.73;4.40;;;21.30;70.30;;;;;;5108960;28;20804;-78
2023/07/17 05:16:18;;;;;;;13.50;4.97;;;21.40;70.30;;;;;;5106766;28;20922;-79
2023/07/17 05:18:47;;;;;;;13.40;5.70;;;21.60;70.30;;;;;;5107063;28;20475;-79
2023/07/17 05:21:15;;;;;;;13.17;4.70;;;21.80;70.20;;;;;;5103180;28;20528;-79
2023/07/17 05:23:43;;;;;;;18.80;4.30;;;21.90;70.30;;;;;;5100741;28;20548;-79
2023/07/17 05:26:11;;;;;;;12.47;5.07;;;22.10;70.30;;;;;;5108082;28;20451;-79
2023/07/17 05:28:40;;;;;;;8.47;4.33;;;22.30;70.30;;;;;;5103080;28;20457;-79
2023/07/17 05:31:10;;;;;;;16.73;5.00;;;22.40;70.20;;;;;;5103618;28;20576;-79
2023/07/17 05:33:57;;;;;;;12.23;4.90;;;22.60;70.20;;;;;;5097761;28;20461;-80
2023/07/17 05:36:25;;;;;;;11.83;4.77;;;22.90;70.10;;;;;;5094755;28;21007;-80
2023/07/17 05:38:53;;;;;;;10.80;4.80;;;23.20;70.20;;;;;;5101439;28;20460;-79
2023/07/17 05:41:22;;;;;;;9.83;4.60;;;23.60;69.60;;;;;;5096661;28;20453;-80
2023/07/17 05:43:50;;;;;;;7.53;3.80;;;24.40;68.40;;;;;;5086912;28;20498;-79
2023/07/17 05:46:36;;;;;;;8.37;4.40;;;25.30;66.70;;;;;;5106046;28;20467;-76
2023/07/17 05:49:04;;;;;;;9.63;3.80;;;26.20;64.70;;;;;;5102196;28;20460;-80
2023/07/17 05:51:32;;;;;;;11.33;5.73;;;27.10;63.70;;;;;;5104191;28;20555;-79
2023/07/17 05:54:00;;;;;;;8.70;4.20;;;27.90;62.60;;;;;;5103750;28;20481;-80
2023/07/17 05:56:28;;;;;;;9.27;4.50;;;28.50;61.70;;;;;;5107571;28;20493;-78
2023/07/17 05:58:56;;;;;;;10.37;4.10;;;29.10;60.60;;;;;;5108086;28;21038;-79
2023/07/17 06:01:24;;;;;;;9.20;3.47;;;29.70;59.90;;;;;;5104847;28;20472;-80
2023/07/17 06:03:55;;;;;;;10.83;4.47;;;30.20;59.00;;;;;;5106406;28;20514;-79
2023/07/17 06:06:23;;;;;;;11.50;4.00;;;30.80;57.90;;;;;;5104497;28;20504;-79
2023/07/17 06:08:51;;;;;;;10.87;3.97;;;31.30;57.20;;;;;;5101774;28;20474;-79
2023/07/17 06:11:19;;;;;;;8.67;3.90;;;31.70;56.30;;;;;;5099082;28;20494;-79
2023/07/17 06:13:47;;;;;;;9.03;3.47;;;32.10;55.30;;;;;;5103279;28;20548;-79
2023/07/17 06:16:15;;;;;;;10.13;3.20;;;32.50;54.30;;;;;;5096773;28;20479;-79
2023/07/17 06:18:43;;;;;;;6.80;3.40;;;32.80;53.40;;;;;;5101435;28;20456;-79
2023/07/17 06:21:13;;;;;;;8.10;4.00;;;32.90;52.60;;;;;;5099279;28;20926;-79
2023/07/17 06:23:41;;;;;;;12.07;4.53;;;32.20;52.00;;;;;;5104194;28;20466;-79
2023/07/17 06:26:09;;;;;;;8.13;3.80;;;31.00;52.30;;;;;;5102601;28;21130;-79
2023/07/17 06:28:37;;;;;;;8.63;3.93;;;29.80;53.20;;;;;;5103995;28;20459;-79
2023/07/17 06:31:05;;;;;;;9.10;4.33;;;28.60;54.20;;;;;;5101616;28;20508;-78
2023/07/17 06:33:34;;;;;;;9.93;4.77;;;27.70;55.30;;;;;;5101722;28;20452;-79
2023/07/17 06:36:03;;;;;;;8.33;4.30;;;26.90;56.10;;;;;;5102309;28;20468;-79
2023/07/17 06:38:32;;;;;;;11.70;4.33;;;26.30;57.10;;;;;;5100266;28;20460;-80
2023/07/17 06:41:01;;;;;;;9.63;4.63;;;25.80;57.80;;;;;;5103710;28;20532;-79
2023/07/17 06:43:28;;;;;;;10.70;3.97;;;25.40;58.40;;;;;;5102445;28;20452;-79
2023/07/17 06:45:57;;;;;;;11.27;4.30;;;25.10;58.90;;;;;;5102300;28;20462;-79
2023/07/17 06:48:25;;;;;;;11.17;4.97;;;24.90;59.40;;;;;;5102299;28;20505;-79
2023/07/17 06:50:53;;;;;;;8.70;4.93;;;24.70;59.80;;;;;;5097606;28;20464;-79
2023/07/17 06:53:21;;;;;;;9.63;4.60;;;24.50;60.10;;;;;;5103416;28;20474;-79
2023/07/17 06:55:57;;;;;;;13.07;5.27;;;24.40;60.50;;;;;;5096241;28;21313;-79
2023/07/17 06:58:25;;;;;;;12.00;4.73;;;24.30;61.00;;;;;;5097267;28;20903;-79
2023/07/17 07:00:57;;;;;;;8.40;4.57;;;24.20;61.10;;;;;;5101393;28;20464;-79
2023/07/17 07:03:26;;;;;;;10.10;4.83;;;24.00;61.50;;;;;;5104783;28;20459;-79
2023/07/17 07:05:56;;;;;;;10.60;4.43;;;23.90;61.80;;;;;;5094319;28;20871;-79
2023/07/17 07:08:24;;;;;;;10.03;4.10;;;23.90;62.10;;;;;;5100419;28;20681;-79
2023/07/17 07:10:52;;;;;;;11.70;5.37;;;23.80;62.30;;;;;;5098196;28;20990;-79
2023/07/17 07:13:22;;;;;;;13.00;5.90;;;23.80;62.60;;;;;;5104014;28;20459;-79
2023/07/17 07:15:51;;;;;;;17.63;5.40;;;23.80;62.80;;;;;;5104033;28;20496;-79
2023/07/17 07:18:19;;;;;;;13.37;4.40;;;23.80;62.90;;;;;;5107311;28;20487;-80
2023/07/17 07:20:51;;;;;;;10.90;5.23;;;23.80;63.10;;;;;;5100524;28;20454;-79
2023/07/17 07:23:19;;;;;;;10.43;4.33;;;23.70;63.20;;;;;;5095022;28;20452;-79
2023/07/17 07:25:47;;;;;;;14.77;5.00;;;23.70;63.20;;;;;;5102354;28;20462;-79
2023/07/17 07:28:15;;;;;;;8.80;4.53;;;23.80;63.30;;;;;;5104720;28;20453;-79
2023/07/17 07:30:45;;;;;;;11.63;4.60;;;23.80;63.30;;;;;;5100984;28;20562;-79
2023/07/17 07:33:13;;;;;;;9.80;5.57;;;23.80;63.30;;;;;;5108169;28;20444;-79
2023/07/17 07:35:44;;;;;;;12.30;5.37;;;23.80;63.20;;;;;;5105199;28;20472;-80
2023/07/17 07:38:12;;;;;;;10.87;4.57;;;23.90;63.20;;;;;;5105085;28;21222;-79
2023/07/17 07:40:40;;;;;;;8.90;5.03;;;23.90;63.10;;;;;;5108644;28;20452;-79
2023/07/17 07:43:08;;;;;;;8.70;4.50;;;23.90;63.10;;;;;;5108432;28;20842;-80
2023/07/17 07:45:36;;;;;;;11.43;5.20;;;23.90;62.90;;;;;;5109945;28;20839;-80
2023/07/17 07:48:06;;;;;;;11.67;4.73;;;23.90;62.70;;;;;;5110870;27;20452;-80
2023/07/17 07:50:35;;;;;;;11.93;5.57;;;24.00;62.70;;;;;;5109796;28;20470;-79
2023/07/17 07:53:03;;;;;;;9.77;4.93;;;24.00;62.70;;;;;;5100463;28;20551;-79
2023/07/17 07:55:32;;;;;;;9.13;4.50;;;24.10;62.50;;;;;;5104922;28;20524;-80
2023/07/17 07:58:00;;;;;;;10.77;5.03;;;24.10;62.40;;;;;;5103771;28;20574;-79
2023/07/17 08:00:28;;;;;;;15.40;4.80;;;24.20;62.20;;;;;;5097621;28;20490;-79
2023/07/17 08:02:56;;;;;;;10.60;4.80;;;24.20;62.20;;;;;;5105770;28;20487;-79
2023/07/17 08:05:26;;;;;;;11.23;5.47;;;24.20;62.10;;;;;;5106504;28;20468;-78
2023/07/17 08:07:54;;;;;;;12.20;4.83;;;24.30;62.00;;;;;;5106481;28;20459;-79
2023/07/17 08:10:22;;;;;;;11.33;4.57;;;24.30;62.00;;;;;;5103531;28;20498;-79
2023/07/17 08:12:50;;;;;;;9.97;5.30;;;24.30;61.90;;;;;;5099173;28;20487;-79
2023/07/17 08:15:18;;;;;;;8.30;4.53;;;24.40;61.90;;;;;;5106541;28;20823;-79
2023/07/17 08:17:46;;;;;;;12.60;4.80;;;24.40;61.80;;;;;;5103638;28;20542;-79
2023/07/17 08:20:14;;;;;;;10.53;5.20;;;24.40;61.60;;;;;;5097051;28;20460;-79
2023/07/17 08:22:44;;;;;;;13.87;5.10;;;24.50;61.60;;;;;;5095663;28;20734;-79
2023/07/17 08:25:13;;;;;;;10.77;4.53;;;24.50;61.10;;;;;;5101320;28;20506;-80
2023/07/17 08:27:42;;;;;;;15.07;5.03;;;24.50;60.90;;;;;;5108765;28;20452;-79
2023/07/17 08:30:11;;;;;;;10.90;4.77;;;24.50;60.70;;;;;;5099795;28;20504;-79
2023/07/17 08:32:39;;;;;;;8.83;4.10;;;24.60;60.50;;;;;;5098456;27;20503;-79
2023/07/17 08:35:08;;;;;;;11.03;4.87;;;24.60;60.10;;;;;;5102918;28;20860;-79
2023/07/17 08:37:37;;;;;;;12.73;4.23;;;24.70;59.90;;;;;;5105083;28;21345;-79
2023/07/17 08:40:11;;;;;;;9.43;4.00;;;24.70;58.90;;;;;;5108741;28;20446;-80
2023/07/17 08:42:45;;;;;;;14.20;4.57;;;24.70;57.80;;;;;;5107873;28;20452;-79
2023/07/17 08:45:17;;;;;;;12.10;4.20;;;24.70;57.30;;;;;;5098795;28;20937;-78
2023/07/17 08:47:46;;;;;;;11.30;3.80;;;24.60;56.30;;;;;;5103079;28;20563;-79
2023/07/17 08:50:16;;;;;;;7.20;3.50;;;24.60;55.70;;;;;;5104881;28;20795;-78
2023/07/17 08:52:47;;;;;;;8.20;4.20;;;24.50;55.20;;;;;;5103549;28;20472;-79
2023/07/17 08:55:16;;;;;;;8.00;3.60;;;24.50;54.70;;;;;;5106665;28;20533;-79
2023/07/17 08:57:46;;;;;;;12.37;4.83;;;24.60;54.70;;;;;;5101771;28;20452;-79
2023/07/17 09:00:15;;;;;;;10.40;4.33;;;24.60;54.70;;;;;;5106617;28;20476;-79
2023/07/17 09:02:44;;;;;;;7.93;3.80;;;24.60;54.30;;;;;;5107866;28;20564;-79
2023/07/17 09:05:12;;;;;;;8.70;3.57;;;24.60;54.30;;;;;;5100512;28;20456;-79
2023/07/17 09:07:40;;;;;;;14.03;3.80;;;24.70;54.00;;;;;;5099567;28;20910;-79
2023/07/17 09:10:19;;;;;;;13.87;4.33;;;24.80;53.80;;;;;;5100176;28;20456;-79
2023/07/17 09:12:52;;;;;;;10.97;4.50;;;24.90;53.60;;;;;;5103245;28;20475;-79
2023/07/17 09:15:20;;;;;;;9.97;4.20;;;24.90;53.40;;;;;;5106535;28;20539;-79
2023/07/17 09:17:48;;;;;;;8.83;4.20;;;25.00;53.50;;;;;;5100213;28;20455;-79
2023/07/17 09:20:17;;;;;;;10.13;4.27;;;25.10;53.40;;;;;;5103749;28;21080;-78
2023/07/17 09:22:47;;;;;;;11.70;4.30;;;25.20;53.40;;;;;;5102679;28;20922;-79
2023/07/17 09:25:17;;;;;;;8.43;4.30;;;25.40;53.10;;;;;;5095882;27;20468;-79
2023/07/17 09:27:48;;;;;;;10.83;4.40;;;25.40;52.80;;;;;;5095206;28;20466;-79
2023/07/17 09:30:18;;;;;;;9.17;4.43;;;25.50;52.50;;;;;;5100035;28;20768;-79
2023/07/17 09:32:49;;;;;;;14.30;4.93;;;25.60;52.50;;;;;;5099945;28;20479;-79
2023/07/17 09:35:19;;;;;;;8.20;4.13;;;25.60;52.30;;;;;;5101947;28;20473;-79
2023/07/17 09:37:48;;;;;;;9.83;4.53;;;25.70;52.40;;;;;;5103972;28;20475;-80
2023/07/17 09:40:19;;;;;;;10.80;4.77;;;25.80;52.40;;;;;;5095908;28;20474;-80
2023/07/17 09:42:53;;;;;;;11.50;3.90;;;25.90;52.10;;;;;;5103854;28;21040;-79
2023/07/17 09:45:22;;;;;;;10.33;4.33;;;25.90;51.60;;;;;;5094631;28;20551;-79
2023/07/17 09:47:50;;;;;;;12.87;4.47;;;25.90;51.50;;;;;;5101838;28;20590;-80
2023/07/17 09:50:22;;;;;;;10.60;5.10;;;25.90;51.40;;;;;;5100469;28;20464;-79
2023/07/17 09:52:51;;;;;;;8.97;4.63;;;25.90;51.30;;;;;;5098895;28;20517;-79
2023/07/17 09:55:25;;;;;;;13.30;4.27;;;25.90;51.40;;;;;;5099458;28;20525;-79
2023/07/17 09:57:57;;;;;;;7.63;4.03;;;26.00;51.40;;;;;;5097809;28;21016;-79
2023/07/17 10:00:28;;;;;;;10.70;4.23;;;26.00;51.30;;;;;;5095969;28;20539;-77
2023/07/17 10:03:04;;;;;;;11.50;4.80;;;26.00;51.20;;;;;;5099980;28;20819;-80
2023/07/17 10:05:34;;;;;;;8.10;4.07;;;26.00;51.20;;;;;;5100715;28;21214;-79
2023/07/17 10:08:06;;;;;;;7.70;4.30;;;26.00;51.40;;;;;;5105073;27;20875;-79
2023/07/17 10:10:36;;;;;;;9.50;4.40;;;26.10;51.20;;;;;;5094957;28;20455;-80
2023/07/17 10:13:06;;;;;;;10.43;4.90;;;26.00;51.20;;;;;;5091160;28;20563;-79
2023/07/17 10:15:35;;;;;;;9.90;4.53;;;26.00;51.40;;;;;;5097682;28;20463;-79
2023/07/17 10:18:07;;;;;;;10.73;5.00;;;25.90;51.60;;;;;;5074398;28;21491;-78
2023/07/17 10:20:38;;;;;;;9.03;4.70;;;26.00;51.80;;;;;;5087929;28;21100;-79
2023/07/17 10:23:22;;;;;;;10.43;5.47;;;26.00;51.90;;;;;;5080782;28;20463;-79
2023/07/17 10:25:51;;;;;;;14.83;4.97;;;26.10;51.80;;;;;;5100873;28;21142;-79
2023/07/17 10:28:31;;;;;;;7.90;4.27;;;26.10;51.90;;;;;;5102647;28;20547;-80
2023/07/17 10:31:08;;;;;;;9.33;4.83;;;26.20;51.60;;;;;;5092532;27;20476;-79
2023/07/17 10:33:37;;;;;;;10.87;4.77;;;26.20;51.50;;;;;;5107519;28;20552;-79
2023/07/17 10:36:06;;;;;;;9.97;4.73;;;26.30;51.50;;;;;;5098865;28;20474;-78
2023/07/17 10:38:37;;;;;;;9.37;5.10;;;26.30;51.60;;;;;;5104119;28;20456;-79
2023/07/17 10:41:24;;;;;;;9.43;4.00;;;26.30;51.40;;;;;;5099240;28;20552;-78
2023/07/17 10:43:54;;;;;;;10.07;5.60;;;26.40;51.50;;;;;;5099774;28;20441;-79
2023/07/17 10:46:42;;;;;;;9.43;5.07;;;26.40;51.60;;;;;;5104138;28;20455;-79
2023/07/17 10:49:12;;;;;;;8.20;4.23;;;26.40;51.80;;;;;;5098181;28;20978;-78
2023/07/17 10:51:43;;;;;;;12.07;5.43;;;26.50;51.80;;;;;;5101617;28;20933;-79
2023/07/17 10:54:12;;;;;;;10.13;5.10;;;26.50;51.80;;;;;;5099430;28;20488;-79
2023/07/17 10:56:43;;;;;;;10.20;5.13;;;26.60;51.50;;;;;;5099651;28;20500;-79
2023/07/17 10:59:11;;;;;;;11.87;5.40;;;26.60;51.50;;;;;;5097199;28;20449;-79
2023/07/17 11:01:39;;;;;;;11.53;5.07;;;26.60;51.60;;;;;;5100869;28;21001;-79
2023/07/17 11:04:08;;;;;;;10.43;5.30;;;26.60;51.70;;;;;;5102308;28;20451;-79
2023/07/17 11:06:36;;;;;;;17.20;5.10;;;26.60;51.80;;;;;;5104732;28;20471;-79
2023/07/17 11:09:04;;;;;;;13.53;5.47;;;26.70;51.80;;;;;;5108779;28;20456;-79
2023/07/17 11:11:33;;;;;;;10.07;4.60;;;26.70;51.70;;;;;;5107445;28;20978;-79
2023/07/17 11:14:03;;;;;;;10.93;4.43;;;26.60;51.80;;;;;;5098758;28;20522;-78
2023/07/17 11:16:31;;;;;;;10.67;5.30;;;26.60;52.00;;;;;;5103798;28;20496;-78
2023/07/17 11:19:03;;;;;;;10.77;4.90;;;26.70;52.00;;;;;;5102764;28;20535;-79
2023/07/17 11:21:32;;;;;;;9.17;4.40;;;26.70;51.90;;;;;;5102835;28;20498;-79
2023/07/17 11:24:02;;;;;;;10.30;4.10;;;26.60;51.70;;;;;;5107152;28;20818;-79
2023/07/17 11:26:31;;;;;;;13.43;5.20;;;26.60;51.60;;;;;;5103290;28;20800;-79
2023/07/17 11:29:03;;;;;;;11.17;4.40;;;26.60;51.70;;;;;;5107306;28;20498;-79
2023/07/17 11:31:33;;;;;;;10.07;4.80;;;26.70;51.60;;;;;;5104490;28;20563;-79
2023/07/17 11:34:05;;;;;;;9.33;4.23;;;26.70;51.50;;;;;;5104950;27;20477;-79
2023/07/17 11:36:40;;;;;;;10.03;4.77;;;26.70;51.40;;;;;;5103715;27;20478;-79
2023/07/17 11:39:10;;;;;;;8.20;4.33;;;26.70;51.30;;;;;;5099718;28;21296;-80
2023/07/17 11:41:46;;;;;;;8.70;4.50;;;26.80;51.50;;;;;;5103902;27;20555;-79
2023/07/17 11:44:25;;;;;;;10.40;4.50;;;26.90;51.40;;;;;;5108075;28;21112;-79
2023/07/17 11:46:54;;;;;;;12.00;4.60;;;26.90;51.30;;;;;;5094998;28;20463;-79
2023/07/17 11:49:24;;;;;;;11.33;4.47;;;26.90;51.50;;;;;;5096039;28;20626;-79
2023/07/17 11:51:53;;;;;;;10.87;4.90;;;26.90;51.40;;;;;;5104447;28;20809;-79
2023/07/17 11:54:21;;;;;;;8.20;4.00;;;26.90;51.40;;;;;;5102546;28;20566;-78
2023/07/17 11:56:52;;;;;;;8.77;3.60;;;26.90;51.30;;;;;;5097895;28;20499;-80
2023/07/17 11:59:20;;;;;;;8.90;4.00;;;26.90;51.10;;;;;;5098472;28;20456;-79
2023/07/17 12:01:50;;;;;;;12.30;4.73;;;27.00;51.20;;;;;;5105370;28;20464;-80
2023/07/17 12:04:21;;;;;;;15.10;4.90;;;27.10;51.10;;;;;;5106720;28;20453;-79
2023/07/17 12:06:52;;;;;;;8.47;4.30;;;27.10;50.50;;;;;;5100277;28;20733;-79
2023/07/17 12:09:20;;;;;;;11.27;4.00;;;27.10;50.20;;;;;;5110014;28;20448;-79
2023/07/17 12:11:48;;;;;;;9.20;4.30;;;27.10;50.10;;;;;;5103750;28;20954;-78
2023/07/17 12:14:18;;;;;;;9.63;4.27;;;27.10;50.30;;;;;;5100343;28;20575;-79
2023/07/17 12:16:47;;;;;;;10.90;3.97;;;27.20;50.10;;;;;;5102651;28;20475;-79
2023/07/17 12:19:18;;;;;;;7.93;4.33;;;27.20;50.00;;;;;;5101927;28;20444;-79
2023/07/17 12:21:47;;;;;;;9.13;4.47;;;27.20;50.10;;;;;;5099619;28;20469;-80
2023/07/17 12:24:15;;;;;;;8.90;3.57;;;27.20;50.00;;;;;;5100502;28;20823;-80
2023/07/17 12:26:43;;;;;;;9.63;4.40;;;27.20;50.00;;;;;;5098284;28;20866;-80
2023/07/17 12:29:11;;;;;;;9.30;3.90;;;27.20;50.10;;;;;;5102459;28;20751;-79
2023/07/17 12:31:39;;;;;;;11.10;4.20;;;27.20;50.30;;;;;;5106322;28;20500;-79
2023/07/17 12:34:08;;;;;;;8.20;3.80;;;27.20;50.40;;;;;;5104395;27;20506;-79
2023/07/17 12:36:38;;;;;;;11.53;3.80;;;27.20;50.00;;;;;;5102005;28;20460;-79
2023/07/17 12:39:13;;;;;;;9.63;3.47;;;27.10;50.00;;;;;;5095487;28;20458;-79
2023/07/17 12:41:41;;;;;;;9.80;4.23;;;27.10;50.20;;;;;;5109021;28;20444;-79
2023/07/17 12:44:10;;;;;;;9.90;3.87;;;27.10;50.10;;;;;;5105223;28;20962;-80
2023/07/17 12:46:38;;;;;;;9.77;3.80;;;27.10;50.10;;;;;;5103932;28;20469;-79
2023/07/17 12:49:06;;;;;;;7.90;3.63;;;27.20;50.00;;;;;;5099023;28;20456;-79
2023/07/17 12:51:34;;;;;;;8.60;4.60;;;27.10;50.10;;;;;;5102238;28;20456;-79
2023/07/17 12:54:03;;;;;;;11.03;4.57;;;27.10;50.10;;;;;;5105972;28;20472;-80
2023/07/17 12:56:31;;;;;;;9.60;4.40;;;27.10;50.20;;;;;;5100234;28;20453;-78
2023/07/17 12:58:59;;;;;;;8.50;4.17;;;27.10;50.40;;;;;;5104490;28;20452;-79
2023/07/17 13:01:27;;;;;;;9.17;3.60;;;27.30;50.60;;;;;;5098808;28;21128;-79